Waco, Texas
Current Conditions -  °F | °C
As of 7:51 PM on Wednesday 17 Dec 2014 (Local Time) from KACT Reporting Station
Overcast Overcast  
Wind Chill: 45°   Ceiling: 1500
Heat Index: 48°   Visibility: 10mi
Dew Point: 45°   Wind: 6mph
Humidity: 89%   Direction: 30°NNE
Pressure: 30.12"   Gusts: NA
Location:  31.57°N, 97.15°W
Report Text: KACT 180151Z 03005KT 10SM OVC015 09/07 A3012 RMK AO2 SLP199 T00890072
Loading
Personal Weather Stations






























Interactive Weather Map New forecast layout! Learn more

10-Day Weather Forecast

Advertisements
Track Severe Weather on mobile